sensor_id;sensor_type;location;lat;lon;timestamp;temperature;humidity
20349;DHT22;10332;50.208;18.988;2022-07-18T00:00:35;15.40;57.00
20349;DHT22;10332;50.208;18.988;2022-07-18T00:03:07;15.40;60.10
20349;DHT22;10332;50.208;18.988;2022-07-18T00:05:35;15.30;60.70
20349;DHT22;10332;50.208;18.988;2022-07-18T00:08:02;15.30;61.70
20349;DHT22;10332;50.208;18.988;2022-07-18T00:10:30;15.30;62.50
20349;DHT22;10332;50.208;18.988;2022-07-18T00:12:57;15.30;63.20
20349;DHT22;10332;50.208;18.988;2022-07-18T00:15:25;15.20;66.30
20349;DHT22;10332;50.208;18.988;2022-07-18T00:17:52;15.20;66.80
20349;DHT22;10332;50.208;18.988;2022-07-18T00:20:20;15.20;68.20
20349;DHT22;10332;50.208;18.988;2022-07-18T00:22:47;15.20;68.80
20349;DHT22;10332;50.208;18.988;2022-07-18T00:25:14;15.20;69.20
20349;DHT22;10332;50.208;18.988;2022-07-18T00:27:42;15.20;70.20
20349;DHT22;10332;50.208;18.988;2022-07-18T00:30:10;15.20;70.70
20349;DHT22;10332;50.208;18.988;2022-07-18T00:32:38;15.20;72.10
20349;DHT22;10332;50.208;18.988;2022-07-18T00:35:05;15.20;72.30
20349;DHT22;10332;50.208;18.988;2022-07-18T00:37:33;15.20;72.30
20349;DHT22;10332;50.208;18.988;2022-07-18T00:40:01;15.20;72.60
20349;DHT22;10332;50.208;18.988;2022-07-18T00:42:28;15.20;73.30
20349;DHT22;10332;50.208;18.988;2022-07-18T00:44:56;15.20;73.70
20349;DHT22;10332;50.208;18.988;2022-07-18T00:47:23;15.20;74.80
20349;DHT22;10332;50.208;18.988;2022-07-18T00:49:51;15.10;75.80
20349;DHT22;10332;50.208;18.988;2022-07-18T00:52:19;15.10;77.30
20349;DHT22;10332;50.208;18.988;2022-07-18T00:54:46;15.10;77.30
20349;DHT22;10332;50.208;18.988;2022-07-18T00:57:14;15.00;77.70
20349;DHT22;10332;50.208;18.988;2022-07-18T00:59:41;15.00;80.00
20349;DHT22;10332;50.208;18.988;2022-07-18T01:02:27;15.00;80.30
20349;DHT22;10332;50.208;18.988;2022-07-18T01:04:55;14.90;81.10
20349;DHT22;10332;50.208;18.988;2022-07-18T01:07:22;14.80;82.50
20349;DHT22;10332;50.208;18.988;2022-07-18T01:09:50;14.80;84.20
20349;DHT22;10332;50.208;18.988;2022-07-18T01:12:17;14.70;84.80
20349;DHT22;10332;50.208;18.988;2022-07-18T01:14:46;14.70;85.40
20349;DHT22;10332;50.208;18.988;2022-07-18T01:17:16;14.70;85.90
20349;DHT22;10332;50.208;18.988;2022-07-18T01:19:45;14.70;85.80
20349;DHT22;10332;50.208;18.988;2022-07-18T01:22:16;14.70;86.70
20349;DHT22;10332;50.208;18.988;2022-07-18T01:24:45;14.70;87.00
20349;DHT22;10332;50.208;18.988;2022-07-18T01:27:18;14.70;86.90
20349;DHT22;10332;50.208;18.988;2022-07-18T01:29:50;14.70;88.00
20349;DHT22;10332;50.208;18.988;2022-07-18T01:32:19;14.60;88.70
20349;DHT22;10332;50.208;18.988;2022-07-18T01:34:48;14.60;89.00
20349;DHT22;10332;50.208;18.988;2022-07-18T01:37:16;14.60;88.40
20349;DHT22;10332;50.208;18.988;2022-07-18T01:39:45;14.70;87.70
20349;DHT22;10332;50.208;18.988;2022-07-18T01:42:14;14.70;88.10
20349;DHT22;10332;50.208;18.988;2022-07-18T01:44:42;14.70;88.30
20349;DHT22;10332;50.208;18.988;2022-07-18T01:47:11;14.60;88.10
20349;DHT22;10332;50.208;18.988;2022-07-18T01:49:39;14.60;88.10
20349;DHT22;10332;50.208;18.988;2022-07-18T01:52:07;14.70;88.00
20349;DHT22;10332;50.208;18.988;2022-07-18T01:54:37;14.70;88.50
20349;DHT22;10332;50.208;18.988;2022-07-18T01:57:06;14.70;87.40
20349;DHT22;10332;50.208;18.988;2022-07-18T01:59:34;14.80;87.50
20349;DHT22;10332;50.208;18.988;2022-07-18T02:02:04;14.80;87.10
20349;DHT22;10332;50.208;18.988;2022-07-18T02:04:32;14.80;86.50
20349;DHT22;10332;50.208;18.988;2022-07-18T02:07:18;14.90;87.50
20349;DHT22;10332;50.208;18.988;2022-07-18T02:09:45;14.80;87.50
20349;DHT22;10332;50.208;18.988;2022-07-18T02:12:13;14.70;88.70
20349;DHT22;10332;50.208;18.988;2022-07-18T02:14:40;14.60;90.40
20349;DHT22;10332;50.208;18.988;2022-07-18T02:17:07;14.50;90.80
20349;DHT22;10332;50.208;18.988;2022-07-18T02:19:35;14.30;91.30
20349;DHT22;10332;50.208;18.988;2022-07-18T02:22:02;14.20;91.80
20349;DHT22;10332;50.208;18.988;2022-07-18T02:24:30;14.10;92.50
20349;DHT22;10332;50.208;18.988;2022-07-18T02:26:57;13.90;93.00
20349;DHT22;10332;50.208;18.988;2022-07-18T02:29:24;13.80;93.40
20349;DHT22;10332;50.208;18.988;2022-07-18T02:31:52;13.80;93.80
20349;DHT22;10332;50.208;18.988;2022-07-18T02:34:19;13.70;94.30
20349;DHT22;10332;50.208;18.988;2022-07-18T02:36:46;13.60;94.90
20349;DHT22;10332;50.208;18.988;2022-07-18T02:39:17;13.60;94.70
20349;DHT22;10332;50.208;18.988;2022-07-18T02:41:44;13.60;94.90
20349;DHT22;10332;50.208;18.988;2022-07-18T02:44:12;13.60;95.30
20349;DHT22;10332;50.208;18.988;2022-07-18T02:46:39;13.50;95.40
20349;DHT22;10332;50.208;18.988;2022-07-18T02:49:07;13.50;95.70
20349;DHT22;10332;50.208;18.988;2022-07-18T02:51:34;13.50;96.40
20349;DHT22;10332;50.208;18.988;2022-07-18T02:54:01;13.40;97.20
20349;DHT22;10332;50.208;18.988;2022-07-18T02:56:29;13.40;97.00
20349;DHT22;10332;50.208;18.988;2022-07-18T02:58:57;13.40;96.90
20349;DHT22;10332;50.208;18.988;2022-07-18T03:01:24;13.40;96.60
20349;DHT22;10332;50.208;18.988;2022-07-18T03:03:52;13.50;96.30
20349;DHT22;10332;50.208;18.988;2022-07-18T03:06:19;13.50;95.90
20349;DHT22;10332;50.208;18.988;2022-07-18T03:08:46;13.60;95.70
20349;DHT22;10332;50.208;18.988;2022-07-18T03:11:13;13.60;95.60
20349;DHT22;10332;50.208;18.988;2022-07-18T03:13:41;13.60;95.40
20349;DHT22;10332;50.208;18.988;2022-07-18T03:16:09;13.70;95.40
20349;DHT22;10332;50.208;18.988;2022-07-18T03:18:36;13.70;95.40
20349;DHT22;10332;50.208;18.988;2022-07-18T03:21:03;13.70;95.20
20349;DHT22;10332;50.208;18.988;2022-07-18T03:23:31;13.80;95.10
20349;DHT22;10332;50.208;18.988;2022-07-18T03:25:58;13.80;94.90
20349;DHT22;10332;50.208;18.988;2022-07-18T03:28:25;13.90;94.80
20349;DHT22;10332;50.208;18.988;2022-07-18T03:30:53;13.90;94.70
20349;DHT22;10332;50.208;18.988;2022-07-18T03:33:20;13.90;94.60
20349;DHT22;10332;50.208;18.988;2022-07-18T03:35:48;14.00;94.50
20349;DHT22;10332;50.208;18.988;2022-07-18T03:38:15;14.00;94.40
20349;DHT22;10332;50.208;18.988;2022-07-18T03:40:42;14.10;94.30
20349;DHT22;10332;50.208;18.988;2022-07-18T03:43:10;14.10;94.30
20349;DHT22;10332;50.208;18.988;2022-07-18T03:45:37;14.10;94.30
20349;DHT22;10332;50.208;18.988;2022-07-18T03:48:12;14.10;94.20
20349;DHT22;10332;50.208;18.988;2022-07-18T03:50:39;14.20;94.10
20349;DHT22;10332;50.208;18.988;2022-07-18T03:53:06;14.20;94.20
20349;DHT22;10332;50.208;18.988;2022-07-18T03:55:33;14.20;94.10
20349;DHT22;10332;50.208;18.988;2022-07-18T03:58:01;14.20;94.10
20349;DHT22;10332;50.208;18.988;2022-07-18T04:00:28;14.20;94.10
20349;DHT22;10332;50.208;18.988;2022-07-18T04:02:56;14.20;94.10
20349;DHT22;10332;50.208;18.988;2022-07-18T04:05:31;14.20;94.10
20349;DHT22;10332;50.208;18.988;2022-07-18T04:08:00;14.30;94.00
20349;DHT22;10332;50.208;18.988;2022-07-18T04:10:27;14.30;94.00
20349;DHT22;10332;50.208;18.988;2022-07-18T04:12:55;14.40;94.00
20349;DHT22;10332;50.208;18.988;2022-07-18T04:15:25;14.40;94.10
20349;DHT22;10332;50.208;18.988;2022-07-18T04:17:53;14.40;94.30
20349;DHT22;10332;50.208;18.988;2022-07-18T04:20:21;14.50;94.10
20349;DHT22;10332;50.208;18.988;2022-07-18T04:22:53;14.60;94.20
20349;DHT22;10332;50.208;18.988;2022-07-18T04:25:25;14.60;94.10
20349;DHT22;10332;50.208;18.988;2022-07-18T04:27:55;14.60;94.10
20349;DHT22;10332;50.208;18.988;2022-07-18T04:30:25;14.60;94.10
20349;DHT22;10332;50.208;18.988;2022-07-18T04:32:55;14.60;94.90
20349;DHT22;10332;50.208;18.988;2022-07-18T04:35:23;14.70;94.90
20349;DHT22;10332;50.208;18.988;2022-07-18T04:37:51;14.70;95.10
20349;DHT22;10332;50.208;18.988;2022-07-18T04:40:21;14.80;95.10
20349;DHT22;10332;50.208;18.988;2022-07-18T04:42:49;14.80;94.90
20349;DHT22;10332;50.208;18.988;2022-07-18T04:45:17;14.80;94.80
20349;DHT22;10332;50.208;18.988;2022-07-18T04:47:52;14.90;94.80
20349;DHT22;10332;50.208;18.988;2022-07-18T04:50:22;14.90;94.50
20349;DHT22;10332;50.208;18.988;2022-07-18T04:52:51;15.00;94.60
20349;DHT22;10332;50.208;18.988;2022-07-18T04:55:20;15.00;94.00
20349;DHT22;10332;50.208;18.988;2022-07-18T04:57:49;15.10;93.70
20349;DHT22;10332;50.208;18.988;2022-07-18T05:00:23;15.20;93.10
20349;DHT22;10332;50.208;18.988;2022-07-18T05:02:54;15.20;92.60
20349;DHT22;10332;50.208;18.988;2022-07-18T05:05:25;15.30;92.20
20349;DHT22;10332;50.208;18.988;2022-07-18T05:08:02;15.30;91.50
20349;DHT22;10332;50.208;18.988;2022-07-18T05:10:30;15.40;91.10
20349;DHT22;10332;50.208;18.988;2022-07-18T05:12:57;15.40;90.70
20349;DHT22;10332;50.208;18.988;2022-07-18T05:15:25;15.50;90.50
20349;DHT22;10332;50.208;18.988;2022-07-18T05:17:53;15.50;90.50
20349;DHT22;10332;50.208;18.988;2022-07-18T05:20:22;15.60;90.30
20349;DHT22;10332;50.208;18.988;2022-07-18T05:22:51;15.70;90.20
20349;DHT22;10332;50.208;18.988;2022-07-18T05:25:20;15.80;90.00
20349;DHT22;10332;50.208;18.988;2022-07-18T05:27:52;15.90;90.00
20349;DHT22;10332;50.208;18.988;2022-07-18T05:30:20;16.00;90.00
20349;DHT22;10332;50.208;18.988;2022-07-18T05:32:51;16.00;90.10
20349;DHT22;10332;50.208;18.988;2022-07-18T05:35:21;16.10;90.00
20349;DHT22;10332;50.208;18.988;2022-07-18T05:37:49;16.10;90.10
20349;DHT22;10332;50.208;18.988;2022-07-18T05:40:16;16.20;90.30
20349;DHT22;10332;50.208;18.988;2022-07-18T05:42:44;16.20;90.40
20349;DHT22;10332;50.208;18.988;2022-07-18T05:45:22;16.30;90.30
20349;DHT22;10332;50.208;18.988;2022-07-18T05:47:53;16.40;90.30
20349;DHT22;10332;50.208;18.988;2022-07-18T05:50:22;16.50;89.90
20349;DHT22;10332;50.208;18.988;2022-07-18T05:52:52;16.50;89.50
20349;DHT22;10332;50.208;18.988;2022-07-18T05:55:20;16.50;89.50
20349;DHT22;10332;50.208;18.988;2022-07-18T05:57:48;16.60;89.90
20349;DHT22;10332;50.208;18.988;2022-07-18T06:00:17;16.60;90.00
20349;DHT22;10332;50.208;18.988;2022-07-18T06:02:48;16.60;90.20
20349;DHT22;10332;50.208;18.988;2022-07-18T06:05:17;16.70;90.30
20349;DHT22;10332;50.208;18.988;2022-07-18T06:07:49;16.70;90.30
20349;DHT22;10332;50.208;18.988;2022-07-18T06:10:17;16.80;90.30
20349;DHT22;10332;50.208;18.988;2022-07-18T06:12:44;16.80;90.40
20349;DHT22;10332;50.208;18.988;2022-07-18T06:15:13;16.90;90.50
20349;DHT22;10332;50.208;18.988;2022-07-18T06:17:41;17.00;90.50
20349;DHT22;10332;50.208;18.988;2022-07-18T06:20:09;17.00;90.30
20349;DHT22;10332;50.208;18.988;2022-07-18T06:22:37;17.10;89.90
20349;DHT22;10332;50.208;18.988;2022-07-18T06:25:05;17.20;88.60
20349;DHT22;10332;50.208;18.988;2022-07-18T06:27:33;17.20;88.30
20349;DHT22;10332;50.208;18.988;2022-07-18T06:30:05;17.30;88.10
20349;DHT22;10332;50.208;18.988;2022-07-18T06:32:34;17.50;87.80
20349;DHT22;10332;50.208;18.988;2022-07-18T06:35:03;17.60;87.50
20349;DHT22;10332;50.208;18.988;2022-07-18T06:37:30;17.70;86.50
20349;DHT22;10332;50.208;18.988;2022-07-18T06:39:58;17.80;86.40
20349;DHT22;10332;50.208;18.988;2022-07-18T06:42:29;18.00;86.30
20349;DHT22;10332;50.208;18.988;2022-07-18T06:44:57;18.10;85.40
20349;DHT22;10332;50.208;18.988;2022-07-18T06:47:24;18.20;84.60
20349;DHT22;10332;50.208;18.988;2022-07-18T06:49:54;18.30;84.00
20349;DHT22;10332;50.208;18.988;2022-07-18T06:52:21;18.40;83.90
20349;DHT22;10332;50.208;18.988;2022-07-18T06:54:48;18.50;83.70
20349;DHT22;10332;50.208;18.988;2022-07-18T06:57:16;18.60;83.30
20349;DHT22;10332;50.208;18.988;2022-07-18T06:59:43;18.70;82.80
20349;DHT22;10332;50.208;18.988;2022-07-18T07:02:17;18.80;83.00
20349;DHT22;10332;50.208;18.988;2022-07-18T07:04:44;18.90;82.70
20349;DHT22;10332;50.208;18.988;2022-07-18T07:07:11;19.00;82.70
20349;DHT22;10332;50.208;18.988;2022-07-18T07:09:39;19.00;82.10
20349;DHT22;10332;50.208;18.988;2022-07-18T07:12:06;19.20;81.50
20349;DHT22;10332;50.208;18.988;2022-07-18T07:14:34;19.30;81.70
20349;DHT22;10332;50.208;18.988;2022-07-18T07:17:03;19.40;77.80
20349;DHT22;10332;50.208;18.988;2022-07-18T07:19:31;19.50;78.20
20349;DHT22;10332;50.208;18.988;2022-07-18T07:21:58;19.50;78.60
20349;DHT22;10332;50.208;18.988;2022-07-18T07:24:26;19.70;78.80
20349;DHT22;10332;50.208;18.988;2022-07-18T07:26:53;19.80;77.20
20349;DHT22;10332;50.208;18.988;2022-07-18T07:29:23;19.90;75.40
20349;DHT22;10332;50.208;18.988;2022-07-18T07:31:51;20.00;75.00
20349;DHT22;10332;50.208;18.988;2022-07-18T07:34:18;20.10;71.40
20349;DHT22;10332;50.208;18.988;2022-07-18T07:36:45;20.20;69.40
20349;DHT22;10332;50.208;18.988;2022-07-18T07:39:13;20.40;66.30
20349;DHT22;10332;50.208;18.988;2022-07-18T07:41:40;20.60;64.40
20349;DHT22;10332;50.208;18.988;2022-07-18T07:44:07;20.80;60.90
20349;DHT22;10332;50.208;18.988;2022-07-18T07:46:35;20.90;58.50
20349;DHT22;10332;50.208;18.988;2022-07-18T07:49:02;21.10;54.40
20349;DHT22;10332;50.208;18.988;2022-07-18T07:51:30;21.20;52.00
20349;DHT22;10332;50.208;18.988;2022-07-18T07:54:02;21.40;49.20
20349;DHT22;10332;50.208;18.988;2022-07-18T07:56:30;21.50;48.00
20349;DHT22;10332;50.208;18.988;2022-07-18T07:58:57;21.50;46.60
20349;DHT22;10332;50.208;18.988;2022-07-18T08:01:24;21.60;45.50
20349;DHT22;10332;50.208;18.988;2022-07-18T08:03:52;21.70;43.30
20349;DHT22;10332;50.208;18.988;2022-07-18T08:06:19;21.70;43.90
20349;DHT22;10332;50.208;18.988;2022-07-18T08:08:47;21.80;42.40
20349;DHT22;10332;50.208;18.988;2022-07-18T08:11:14;21.90;40.00
20349;DHT22;10332;50.208;18.988;2022-07-18T08:13:42;22.00;39.30
20349;DHT22;10332;50.208;18.988;2022-07-18T08:16:09;22.20;38.50
20349;DHT22;10332;50.208;18.988;2022-07-18T08:18:37;22.30;35.20
20349;DHT22;10332;50.208;18.988;2022-07-18T08:21:04;22.50;33.60
20349;DHT22;10332;50.208;18.988;2022-07-18T08:23:31;22.60;32.20
20349;DHT22;10332;50.208;18.988;2022-07-18T08:25:58;22.60;30.10
20349;DHT22;10332;50.208;18.988;2022-07-18T08:28:26;22.70;29.50
20349;DHT22;10332;50.208;18.988;2022-07-18T08:30:53;22.70;28.60
20349;DHT22;10332;50.208;18.988;2022-07-18T08:33:20;22.80;28.50
20349;DHT22;10332;50.208;18.988;2022-07-18T08:35:49;22.80;26.30
20349;DHT22;10332;50.208;18.988;2022-07-18T08:38:16;22.90;26.20
20349;DHT22;10332;50.208;18.988;2022-07-18T08:40:46;23.00;27.30
20349;DHT22;10332;50.208;18.988;2022-07-18T08:43:15;23.10;25.20
20349;DHT22;10332;50.208;18.988;2022-07-18T08:45:49;23.20;25.30
20349;DHT22;10332;50.208;18.988;2022-07-18T08:48:18;23.20;24.90
20349;DHT22;10332;50.208;18.988;2022-07-18T08:50:48;23.20;23.50
20349;DHT22;10332;50.208;18.988;2022-07-18T08:53:17;23.20;22.80
20349;DHT22;10332;50.208;18.988;2022-07-18T08:55:46;23.30;21.40
20349;DHT22;10332;50.208;18.988;2022-07-18T08:58:14;23.30;20.40
20349;DHT22;10332;50.208;18.988;2022-07-18T09:01:05;23.40;21.30
20349;DHT22;10332;50.208;18.988;2022-07-18T09:03:33;23.50;21.50
20349;DHT22;10332;50.208;18.988;2022-07-18T09:06:11;23.60;21.20
20349;DHT22;10332;50.208;18.988;2022-07-18T09:08:59;23.80;21.00
20349;DHT22;10332;50.208;18.988;2022-07-18T09:11:28;23.90;20.10
20349;DHT22;10332;50.208;18.988;2022-07-18T09:17:26;24.00;17.70
20349;DHT22;10332;50.208;18.988;2022-07-18T09:20:09;24.10;17.70
20349;DHT22;10332;50.208;18.988;2022-07-18T09:22:46;24.20;18.50
20349;DHT22;10332;50.208;18.988;2022-07-18T09:25:16;24.40;17.40
20349;DHT22;10332;50.208;18.988;2022-07-18T09:27:52;24.40;15.00
20349;DHT22;10332;50.208;18.988;2022-07-18T09:30:29;24.40;12.80
20349;DHT22;10332;50.208;18.988;2022-07-18T09:35:48;24.60;12.60
20349;DHT22;10332;50.208;18.988;2022-07-18T09:38:21;24.70;12.30
20349;DHT22;10332;50.208;18.988;2022-07-18T09:40:52;24.90;10.70
20349;DHT22;10332;50.208;18.988;2022-07-18T09:43:23;25.20;11.50
20349;DHT22;10332;50.208;18.988;2022-07-18T09:45:53;25.80;12.80
20349;DHT22;10332;50.208;18.988;2022-07-18T09:48:25;26.60;13.90
20349;DHT22;10332;50.208;18.988;2022-07-18T09:53:37;28.20;4.50
20349;DHT22;10332;50.208;18.988;2022-07-18T09:56:08;28.80;1.00
20349;DHT22;10332;50.208;18.988;2022-07-18T09:58:38;29.40;1.00
20349;DHT22;10332;50.208;18.988;2022-07-18T10:01:10;30.10;1.00
20349;DHT22;10332;50.208;18.988;2022-07-18T10:03:38;30.80;1.00
20349;DHT22;10332;50.208;18.988;2022-07-18T10:06:07;31.70;1.00
20349;DHT22;10332;50.208;18.988;2022-07-18T10:08:35;32.70;1.00
20349;DHT22;10332;50.208;18.988;2022-07-18T10:11:04;33.20;1.00
20349;DHT22;10332;50.208;18.988;2022-07-18T10:13:34;33.90;1.00
20349;DHT22;10332;50.208;18.988;2022-07-18T10:16:03;34.70;1.00
20349;DHT22;10332;50.208;18.988;2022-07-18T10:18:33;35.40;1.00
20349;DHT22;10332;50.208;18.988;2022-07-18T10:26:23;38.20;1.00
20349;DHT22;10332;50.208;18.988;2022-07-18T10:31:30;39.10;1.00
20349;DHT22;10332;50.208;18.988;2022-07-18T10:39:21;39.70;1.00
20349;DHT22;10332;50.208;18.988;2022-07-18T11:00:37;32.20;1.00
20349;DHT22;10332;50.208;18.988;2022-07-18T11:03:11;31.50;1.00
20349;DHT22;10332;50.208;18.988;2022-07-18T11:05:45;30.90;1.00
20349;DHT22;10332;50.208;18.988;2022-07-18T11:08:18;30.40;1.00
20349;DHT22;10332;50.208;18.988;2022-07-18T11:15:58;29.40;1.00
20349;DHT22;10332;50.208;18.988;2022-07-18T11:21:28;29.20;1.00
20349;DHT22;10332;50.208;18.988;2022-07-18T11:26:37;29.00;1.00
20349;DHT22;10332;50.208;18.988;2022-07-18T11:29:11;28.90;1.00
20349;DHT22;10332;50.208;18.988;2022-07-18T11:31:51;28.90;1.00
20349;DHT22;10332;50.208;18.988;2022-07-18T11:34:24;28.80;1.00
20349;DHT22;10332;50.208;18.988;2022-07-18T11:37:13;28.70;1.00
20349;DHT22;10332;50.208;18.988;2022-07-18T11:39:40;28.60;1.00
20349;DHT22;10332;50.208;18.988;2022-07-18T11:42:08;28.70;1.00
20349;DHT22;10332;50.208;18.988;2022-07-18T11:44:38;28.80;1.00
20349;DHT22;10332;50.208;18.988;2022-07-18T11:47:09;28.90;1.00
20349;DHT22;10332;50.208;18.988;2022-07-18T11:49:39;29.20;1.00
20349;DHT22;10332;50.208;18.988;2022-07-18T11:52:07;29.50;1.00
20349;DHT22;10332;50.208;18.988;2022-07-18T11:54:35;29.60;1.00
20349;DHT22;10332;50.208;18.988;2022-07-18T11:57:02;29.60;1.00
20349;DHT22;10332;50.208;18.988;2022-07-18T11:59:41;29.70;1.00
20349;DHT22;10332;50.208;18.988;2022-07-18T12:02:11;29.80;1.00
20349;DHT22;10332;50.208;18.988;2022-07-18T12:04:39;30.00;1.00
20349;DHT22;10332;50.208;18.988;2022-07-18T12:07:24;30.10;1.00
20349;DHT22;10332;50.208;18.988;2022-07-18T12:09:53;30.30;1.00
20349;DHT22;10332;50.208;18.988;2022-07-18T12:12:22;30.50;1.00
20349;DHT22;10332;50.208;18.988;2022-07-18T12:15:01;30.80;1.00
20349;DHT22;10332;50.208;18.988;2022-07-18T12:17:30;31.20;1.00
20349;DHT22;10332;50.208;18.988;2022-07-18T12:20:15;31.40;1.00
20349;DHT22;10332;50.208;18.988;2022-07-18T12:23:07;31.80;1.00
20349;DHT22;10332;50.208;18.988;2022-07-18T12:25:42;32.00;1.00
20349;DHT22;10332;50.208;18.988;2022-07-18T12:28:15;32.10;1.00
20349;DHT22;10332;50.208;18.988;2022-07-18T12:30:45;31.90;1.00
20349;DHT22;10332;50.208;18.988;2022-07-18T12:33:13;31.60;1.00
20349;DHT22;10332;50.208;18.988;2022-07-18T12:35:41;31.20;1.00
20349;DHT22;10332;50.208;18.988;2022-07-18T12:38:16;30.90;1.00
20349;DHT22;10332;50.208;18.988;2022-07-18T12:40:56;30.60;1.00
20349;DHT22;10332;50.208;18.988;2022-07-18T12:43:34;30.40;1.00
20349;DHT22;10332;50.208;18.988;2022-07-18T12:46:10;30.20;1.00
20349;DHT22;10332;50.208;18.988;2022-07-18T12:48:38;30.00;1.00
20349;DHT22;10332;50.208;18.988;2022-07-18T12:51:07;29.80;1.00
20349;DHT22;10332;50.208;18.988;2022-07-18T12:53:42;29.60;1.00
20349;DHT22;10332;50.208;18.988;2022-07-18T12:56:10;29.50;1.00
20349;DHT22;10332;50.208;18.988;2022-07-18T12:58:38;29.50;1.00
20349;DHT22;10332;50.208;18.988;2022-07-18T13:01:06;29.70;1.00
20349;DHT22;10332;50.208;18.988;2022-07-18T13:03:35;29.70;1.00
20349;DHT22;10332;50.208;18.988;2022-07-18T13:06:03;29.70;1.00
20349;DHT22;10332;50.208;18.988;2022-07-18T13:08:31;29.70;1.00
20349;DHT22;10332;50.208;18.988;2022-07-18T13:10:59;29.80;1.00
20349;DHT22;10332;50.208;18.988;2022-07-18T13:13:27;30.00;1.00
20349;DHT22;10332;50.208;18.988;2022-07-18T13:15:54;30.00;1.00
20349;DHT22;10332;50.208;18.988;2022-07-18T13:18:22;29.80;1.00
20349;DHT22;10332;50.208;18.988;2022-07-18T13:20:49;29.80;1.00
20349;DHT22;10332;50.208;18.988;2022-07-18T13:23:17;29.80;1.00
20349;DHT22;10332;50.208;18.988;2022-07-18T13:25:45;29.90;1.00
20349;DHT22;10332;50.208;18.988;2022-07-18T13:28:12;30.00;1.00
20349;DHT22;10332;50.208;18.988;2022-07-18T13:30:40;30.10;1.00
20349;DHT22;10332;50.208;18.988;2022-07-18T13:33:08;30.10;1.00
20349;DHT22;10332;50.208;18.988;2022-07-18T13:35:35;30.30;1.00
20349;DHT22;10332;50.208;18.988;2022-07-18T13:38:02;30.30;1.00
20349;DHT22;10332;50.208;18.988;2022-07-18T13:40:30;30.10;1.00
20349;DHT22;10332;50.208;18.988;2022-07-18T13:42:58;30.00;1.00
20349;DHT22;10332;50.208;18.988;2022-07-18T13:45:25;30.00;1.00
20349;DHT22;10332;50.208;18.988;2022-07-18T13:47:53;30.00;1.00
20349;DHT22;10332;50.208;18.988;2022-07-18T13:50:20;30.10;1.00
20349;DHT22;10332;50.208;18.988;2022-07-18T13:52:47;30.30;1.00
20349;DHT22;10332;50.208;18.988;2022-07-18T13:55:15;30.40;1.00
20349;DHT22;10332;50.208;18.988;2022-07-18T13:57:42;30.30;1.00
20349;DHT22;10332;50.208;18.988;2022-07-18T14:00:10;30.30;1.00
20349;DHT22;10332;50.208;18.988;2022-07-18T14:02:38;30.30;1.00
20349;DHT22;10332;50.208;18.988;2022-07-18T14:05:06;30.20;1.00
20349;DHT22;10332;50.208;18.988;2022-07-18T14:07:43;30.10;1.00
20349;DHT22;10332;50.208;18.988;2022-07-18T14:10:13;30.00;1.00
20349;DHT22;10332;50.208;18.988;2022-07-18T14:12:42;30.00;1.00
20349;DHT22;10332;50.208;18.988;2022-07-18T14:15:10;29.90;1.00
20349;DHT22;10332;50.208;18.988;2022-07-18T14:17:38;29.80;1.00
20349;DHT22;10332;50.208;18.988;2022-07-18T14:20:07;29.80;1.00
20349;DHT22;10332;50.208;18.988;2022-07-18T14:22:37;29.60;1.00
20349;DHT22;10332;50.208;18.988;2022-07-18T14:25:07;29.50;1.00
20349;DHT22;10332;50.208;18.988;2022-07-18T14:27:36;29.50;1.00
20349;DHT22;10332;50.208;18.988;2022-07-18T14:30:05;29.50;1.00
20349;DHT22;10332;50.208;18.988;2022-07-18T14:32:35;29.50;1.00
20349;DHT22;10332;50.208;18.988;2022-07-18T14:35:03;29.40;1.00
20349;DHT22;10332;50.208;18.988;2022-07-18T14:37:31;29.40;1.00
20349;DHT22;10332;50.208;18.988;2022-07-18T14:39:59;29.30;1.00
20349;DHT22;10332;50.208;18.988;2022-07-18T14:42:27;29.20;1.00
20349;DHT22;10332;50.208;18.988;2022-07-18T14:44:55;29.10;1.00
20349;DHT22;10332;50.208;18.988;2022-07-18T14:47:22;29.00;1.00
20349;DHT22;10332;50.208;18.988;2022-07-18T14:49:50;28.90;1.00
20349;DHT22;10332;50.208;18.988;2022-07-18T14:52:17;28.80;1.00
20349;DHT22;10332;50.208;18.988;2022-07-18T14:54:44;28.70;1.00
20349;DHT22;10332;50.208;18.988;2022-07-18T14:57:12;28.60;1.00
20349;DHT22;10332;50.208;18.988;2022-07-18T14:59:42;28.60;1.00
20349;DHT22;10332;50.208;18.988;2022-07-18T15:02:10;28.50;1.00
20349;DHT22;10332;50.208;18.988;2022-07-18T15:04:40;28.50;1.00
20349;DHT22;10332;50.208;18.988;2022-07-18T15:07:08;28.50;1.00
20349;DHT22;10332;50.208;18.988;2022-07-18T15:09:35;28.50;1.00
20349;DHT22;10332;50.208;18.988;2022-07-18T15:12:03;28.60;1.00
20349;DHT22;10332;50.208;18.988;2022-07-18T15:14:30;28.60;1.00
20349;DHT22;10332;50.208;18.988;2022-07-18T15:16:57;28.60;1.00
20349;DHT22;10332;50.208;18.988;2022-07-18T15:19:25;28.60;1.00
20349;DHT22;10332;50.208;18.988;2022-07-18T15:21:52;28.60;1.00
20349;DHT22;10332;50.208;18.988;2022-07-18T15:24:20;28.60;1.00
20349;DHT22;10332;50.208;18.988;2022-07-18T15:26:47;28.60;1.00
20349;DHT22;10332;50.208;18.988;2022-07-18T15:29:14;28.60;1.00
20349;DHT22;10332;50.208;18.988;2022-07-18T15:31:42;28.60;1.00
20349;DHT22;10332;50.208;18.988;2022-07-18T15:34:09;28.60;1.00
20349;DHT22;10332;50.208;18.988;2022-07-18T15:36:36;28.60;1.00
20349;DHT22;10332;50.208;18.988;2022-07-18T15:39:04;28.50;1.00
20349;DHT22;10332;50.208;18.988;2022-07-18T15:41:33;28.60;1.00
20349;DHT22;10332;50.208;18.988;2022-07-18T15:44:00;28.60;1.00
20349;DHT22;10332;50.208;18.988;2022-07-18T15:46:28;28.50;1.00
20349;DHT22;10332;50.208;18.988;2022-07-18T15:48:55;28.30;1.00
20349;DHT22;10332;50.208;18.988;2022-07-18T15:51:22;28.20;1.00
20349;DHT22;10332;50.208;18.988;2022-07-18T15:53:50;28.20;1.00
20349;DHT22;10332;50.208;18.988;2022-07-18T15:56:17;28.20;1.00
20349;DHT22;10332;50.208;18.988;2022-07-18T15:58:45;28.20;1.00
20349;DHT22;10332;50.208;18.988;2022-07-18T16:01:12;28.20;1.00
20349;DHT22;10332;50.208;18.988;2022-07-18T16:03:40;28.10;1.00
20349;DHT22;10332;50.208;18.988;2022-07-18T16:06:07;28.10;1.00
20349;DHT22;10332;50.208;18.988;2022-07-18T16:08:34;28.10;1.00
20349;DHT22;10332;50.208;18.988;2022-07-18T16:11:02;28.00;1.00
20349;DHT22;10332;50.208;18.988;2022-07-18T16:13:29;27.90;1.00
20349;DHT22;10332;50.208;18.988;2022-07-18T16:15:57;27.80;1.00
20349;DHT22;10332;50.208;18.988;2022-07-18T16:18:25;27.70;1.00
20349;DHT22;10332;50.208;18.988;2022-07-18T16:20:53;27.60;1.00
20349;DHT22;10332;50.208;18.988;2022-07-18T16:23:20;27.50;1.00
20349;DHT22;10332;50.208;18.988;2022-07-18T16:25:48;27.50;1.00